KPEO

Penn Yan Airport

Penn Yan, New York, USA
METAR KPEO 191353Z AUTO 21008KT 10SM CLR M03/M07 A3006 RMK AO2 SLP194 T10281067
Observed Flight Rules
Dec-19 @ 13:53 UTC (31 minutes ago) Visual Flight Rules
Wind Visibility Clouds
210° at 8 knots 10 miles
  • Clear skies
Temperatures Readings
Current -3°C / 27°F
Dewpoint -7°C / 19°F
Humidity 74%
Altimeter 30.06" Hg
Pressure 1019.4 hPa
Elevation 256
METAR KPEO 191353Z AUTO 21008KT 10SM CLR M03/M07 A3006 RMK AO2 SLP194 T10281067
Observed Flight Rules
Dec-19 @ 13:53 UTC
(31 minutes ago)
VFR
Wind Visibility
210° at 8 knots 10 miles
Clouds
  • Clear skies
Temperature Dewpoint
-3°C / 27°F -7°C / 19°F
Humidity Altimeter Pressure
74% 30.06" Hg 1019.4 hPa